Terminal Aerodrome Forecast
Issued by NWS

Home | Current Version | Previous Version | Text Only | Print | Product List | Glossary On
Versions: 1 2 3 4 5 6 7 8 9 10 11 12 13 14
000
FTUS45 KGJT 270203 AAB
TAFDRO
TAF AMD
KDRO 270203Z 2702/2724 10012G20KT P6SM VCTS SCT080CB BKN120
      TEMPO 2702/2704 VRB18G30KT P6SM -TSRA BKN080CB OVC120
     FM270500 03006KT P6SM SCT250
     FM271400 VRB03KT P6SM FEW250
     FM271800 25006KT P6SM FEW250
     FM272000 28012G20KT P6SM FEW250=

USA.gov is the U.S. government's official web portal to all federal, state and local government web resources and services.